SLC weather

Salt Lake City International Airport
Salt Lake City, Utah, United States

Public forecast

Using degrees Fahrenheit for public forecast. Weather courtesy of forecast.io.

METAR (pilot weather report)

Retrieved 2018/02/24 10:54 UTC (53 minutes ago):

KSLC 241054Z 13007KT 9SM FEW041 FEW100 M09/M12 A3016 RMK AO2 SLP248 I1000 T10941122

TAF (pilot weather forecast)

Retrieved 2018/02/24 06:30 UTC (5 hours ago):

TAF KSLC 240527Z 2406/2512 18006KT 6SM BR SCT060 SCT150 FM240800 16008KT P6SM SCT080 BKN120 FM241400 15012G20KT P6SM SCT040 BKN080 FM241900 15014G24KT P6SM VCSH SCT020 BKN040 FM250200 33010KT 2SM -SN BR SCT007 BKN015 FM250900 16007KT P6SM VCSH SCT020 BKN040